Pindall, Arkansas
Current Conditions -  °F | °C
As of 10:53 PM on Saturday 25 Oct 2014 (Local Time) from KHRO Reporting Station
Clear Clear  
Wind Chill: 63°   Ceiling: Unl
Heat Index: 63°   Visibility: 10mi
Dew Point: 60°   Wind: 0mph
Humidity: 90%   Direction: NA
Pressure: 30.05"   Gusts: NA
Location:  36.07°N, 92.88°W
Report Text: KHRO 260353Z AUTO 00000KT 10SM CLR 17/16 A3005 RMK AO2 SLP163 T01720156
Loading
Personal Weather Stations






























Interactive Weather Map New forecast layout! Learn more

10-Day Weather Forecast

Advertisements
Track Severe Weather on mobile